Archival Weather

Chicago O'Hare International

Chicago, Illinois (KORD)

Report from: Saturday, August 6, 2022 2:51 PM CDT
Current time: Friday, August 19, 2022 12:50 AM CDT

Current weather
Weather history
Weather forecast

Temperature33.3°C (91.9°F)
Heat index35.7°C (96.2°F)
Dew point20.0°C (68.0°F)
Winds 8 kts (4.1 m/s, 9.2 mph) South-Southwest (210°)
Wind gusts 18 kts (9.3 m/s, 20.7 mph)
Visibility10 mi. (16.1 km)
Clouds Scattered clouds 5,000 ft. (1,524 m)
Scattered clouds 8,000 ft. (2,438 m)
Ceiling: Broken clouds 30,000 ft. (9,144 m)
Altimeter30.02 in.Hg (1017 mB)
Relative humidity46 %
Density altitude2,289 ft. (698 m)
Sea-level pressure101.6 kPa (1016 mB, 30.00 in.Hg)
Remarks Automated weather observing station with precipitation discriminator
Flight conditions Visual Meteorological Conditions
Raw dataKORD 061951Z 21008G18KT 10SM SCT050 SCT080 BKN300 33/20 A3002 RMK AO2 SLP158 T03330200
An unhandled exception has occurred. See browser dev tools for details. Reload 🗙